sensor_id;sensor_type;location;lat;lon;timestamp;P1;durP1;ratioP1;P2;durP2;ratioP2
4555;SDS011;2290;48.674;9.018;2022-09-13T00:00:29;2.13;;;1.90;;
4555;SDS011;2290;48.674;9.018;2022-09-13T00:02:54;1.70;;;1.53;;
4555;SDS011;2290;48.674;9.018;2022-09-13T00:05:21;1.50;;;1.33;;
4555;SDS011;2290;48.674;9.018;2022-09-13T00:07:47;1.60;;;1.50;;
4555;SDS011;2290;48.674;9.018;2022-09-13T00:10:14;2.47;;;1.47;;
4555;SDS011;2290;48.674;9.018;2022-09-13T00:12:40;2.10;;;1.70;;
4555;SDS011;2290;48.674;9.018;2022-09-13T00:15:06;1.70;;;1.50;;
4555;SDS011;2290;48.674;9.018;2022-09-13T00:17:31;1.60;;;1.50;;
4555;SDS011;2290;48.674;9.018;2022-09-13T00:19:57;1.53;;;1.30;;
4555;SDS011;2290;48.674;9.018;2022-09-13T00:22:23;1.90;;;1.40;;
4555;SDS011;2290;48.674;9.018;2022-09-13T00:24:48;1.50;;;1.40;;
4555;SDS011;2290;48.674;9.018;2022-09-13T00:27:14;1.80;;;1.43;;
4555;SDS011;2290;48.674;9.018;2022-09-13T00:29:40;2.90;;;1.40;;
4555;SDS011;2290;48.674;9.018;2022-09-13T00:32:05;2.10;;;1.63;;
4555;SDS011;2290;48.674;9.018;2022-09-13T00:34:31;1.70;;;1.60;;
4555;SDS011;2290;48.674;9.018;2022-09-13T00:36:56;1.40;;;1.30;;
4555;SDS011;2290;48.674;9.018;2022-09-13T00:39:22;1.93;;;1.40;;
4555;SDS011;2290;48.674;9.018;2022-09-13T00:41:47;1.70;;;1.50;;
4555;SDS011;2290;48.674;9.018;2022-09-13T00:47:20;2.23;;;1.60;;
4555;SDS011;2290;48.674;9.018;2022-09-13T00:50:11;2.30;;;1.60;;
4555;SDS011;2290;48.674;9.018;2022-09-13T00:52:45;2.70;;;1.77;;
4555;SDS011;2290;48.674;9.018;2022-09-13T00:55:46;1.80;;;1.60;;
4555;SDS011;2290;48.674;9.018;2022-09-13T00:58:17;3.10;;;1.80;;
4555;SDS011;2290;48.674;9.018;2022-09-13T01:00:48;4.80;;;1.50;;
4555;SDS011;2290;48.674;9.018;2022-09-13T01:03:15;2.30;;;1.53;;
4555;SDS011;2290;48.674;9.018;2022-09-13T01:05:46;2.40;;;1.80;;
4555;SDS011;2290;48.674;9.018;2022-09-13T01:08:16;1.93;;;1.57;;
4555;SDS011;2290;48.674;9.018;2022-09-13T01:10:47;1.47;;;1.37;;
4555;SDS011;2290;48.674;9.018;2022-09-13T01:13:18;1.70;;;1.60;;
4555;SDS011;2290;48.674;9.018;2022-09-13T01:15:46;1.50;;;1.40;;
4555;SDS011;2290;48.674;9.018;2022-09-13T01:18:13;2.17;;;1.60;;
4555;SDS011;2290;48.674;9.018;2022-09-13T01:23:33;1.87;;;1.60;;
4555;SDS011;2290;48.674;9.018;2022-09-13T01:31:30;2.03;;;1.60;;
4555;SDS011;2290;48.674;9.018;2022-09-13T01:37:20;2.20;;;1.70;;
4555;SDS011;2290;48.674;9.018;2022-09-13T01:46:09;4.57;;;1.97;;
4555;SDS011;2290;48.674;9.018;2022-09-13T01:51:30;2.53;;;1.90;;
4555;SDS011;2290;48.674;9.018;2022-09-13T01:54:17;2.40;;;1.70;;
4555;SDS011;2290;48.674;9.018;2022-09-13T01:56:57;2.60;;;1.70;;
4555;SDS011;2290;48.674;9.018;2022-09-13T01:59:46;2.83;;;1.77;;
4555;SDS011;2290;48.674;9.018;2022-09-13T02:04:58;2.30;;;1.80;;
4555;SDS011;2290;48.674;9.018;2022-09-13T02:07:46;2.50;;;2.00;;
4555;SDS011;2290;48.674;9.018;2022-09-13T02:10:25;2.23;;;1.90;;
4555;SDS011;2290;48.674;9.018;2022-09-13T02:13:01;3.97;;;1.70;;
4555;SDS011;2290;48.674;9.018;2022-09-13T02:15:43;2.60;;;2.20;;
4555;SDS011;2290;48.674;9.018;2022-09-13T02:18:16;1.80;;;1.70;;
4555;SDS011;2290;48.674;9.018;2022-09-13T02:20:47;2.63;;;2.03;;
4555;SDS011;2290;48.674;9.018;2022-09-13T02:23:17;2.03;;;1.57;;
4555;SDS011;2290;48.674;9.018;2022-09-13T02:25:49;2.00;;;1.70;;
4555;SDS011;2290;48.674;9.018;2022-09-13T02:28:20;3.03;;;1.90;;
4555;SDS011;2290;48.674;9.018;2022-09-13T02:30:51;2.10;;;1.80;;
4555;SDS011;2290;48.674;9.018;2022-09-13T02:33:23;2.43;;;2.03;;
4555;SDS011;2290;48.674;9.018;2022-09-13T02:36:03;2.53;;;2.10;;
4555;SDS011;2290;48.674;9.018;2022-09-13T02:38:39;2.40;;;1.83;;
4555;SDS011;2290;48.674;9.018;2022-09-13T02:41:20;2.00;;;1.80;;
4555;SDS011;2290;48.674;9.018;2022-09-13T02:44:05;3.60;;;2.30;;
4555;SDS011;2290;48.674;9.018;2022-09-13T02:49:13;1.90;;;1.70;;
4555;SDS011;2290;48.674;9.018;2022-09-13T02:52:12;1.97;;;1.63;;
4555;SDS011;2290;48.674;9.018;2022-09-13T02:54:51;2.23;;;2.03;;
4555;SDS011;2290;48.674;9.018;2022-09-13T03:00:22;2.60;;;2.00;;
4555;SDS011;2290;48.674;9.018;2022-09-13T03:02:47;2.20;;;2.00;;
4555;SDS011;2290;48.674;9.018;2022-09-13T03:05:14;3.00;;;1.77;;
4555;SDS011;2290;48.674;9.018;2022-09-13T03:07:40;2.00;;;1.70;;
4555;SDS011;2290;48.674;9.018;2022-09-13T03:10:06;3.60;;;2.07;;
4555;SDS011;2290;48.674;9.018;2022-09-13T03:17:55;1.70;;;1.60;;
4555;SDS011;2290;48.674;9.018;2022-09-13T03:21:00;2.50;;;2.20;;
4555;SDS011;2290;48.674;9.018;2022-09-13T03:23:52;3.20;;;1.70;;
4555;SDS011;2290;48.674;9.018;2022-09-13T03:26:37;3.10;;;2.23;;
4555;SDS011;2290;48.674;9.018;2022-09-13T03:32:05;2.40;;;1.77;;
4555;SDS011;2290;48.674;9.018;2022-09-13T03:35:03;4.60;;;1.93;;
4555;SDS011;2290;48.674;9.018;2022-09-13T03:37:43;2.20;;;1.87;;
4555;SDS011;2290;48.674;9.018;2022-09-13T03:43:05;2.60;;;1.97;;
4555;SDS011;2290;48.674;9.018;2022-09-13T03:45:59;3.20;;;1.90;;
4555;SDS011;2290;48.674;9.018;2022-09-13T03:48:30;2.00;;;1.70;;
4555;SDS011;2290;48.674;9.018;2022-09-13T03:51:00;2.50;;;1.80;;
4555;SDS011;2290;48.674;9.018;2022-09-13T03:53:26;2.20;;;2.00;;
4555;SDS011;2290;48.674;9.018;2022-09-13T03:55:54;2.33;;;1.93;;
4555;SDS011;2290;48.674;9.018;2022-09-13T03:58:24;3.60;;;1.80;;
4555;SDS011;2290;48.674;9.018;2022-09-13T04:00:50;1.80;;;1.70;;
4555;SDS011;2290;48.674;9.018;2022-09-13T04:03:17;2.30;;;1.90;;
4555;SDS011;2290;48.674;9.018;2022-09-13T04:05:42;4.00;;;1.83;;
4555;SDS011;2290;48.674;9.018;2022-09-13T04:08:08;1.90;;;1.70;;
4555;SDS011;2290;48.674;9.018;2022-09-13T04:10:34;3.60;;;2.20;;
4555;SDS011;2290;48.674;9.018;2022-09-13T04:13:00;2.10;;;1.80;;
4555;SDS011;2290;48.674;9.018;2022-09-13T04:15:26;2.47;;;2.20;;
4555;SDS011;2290;48.674;9.018;2022-09-13T04:17:52;2.27;;;1.90;;
4555;SDS011;2290;48.674;9.018;2022-09-13T04:20:18;2.00;;;1.80;;
4555;SDS011;2290;48.674;9.018;2022-09-13T04:22:53;2.60;;;2.40;;
4555;SDS011;2290;48.674;9.018;2022-09-13T04:25:21;2.60;;;2.27;;
4555;SDS011;2290;48.674;9.018;2022-09-13T04:27:48;3.37;;;2.00;;
4555;SDS011;2290;48.674;9.018;2022-09-13T04:30:17;2.77;;;1.80;;
4555;SDS011;2290;48.674;9.018;2022-09-13T04:32:43;3.00;;;2.10;;
4555;SDS011;2290;48.674;9.018;2022-09-13T04:35:09;2.10;;;1.70;;
4555;SDS011;2290;48.674;9.018;2022-09-13T04:37:35;3.70;;;2.13;;
4555;SDS011;2290;48.674;9.018;2022-09-13T04:40:02;4.67;;;2.03;;
4555;SDS011;2290;48.674;9.018;2022-09-13T04:42:27;3.97;;;2.23;;
4555;SDS011;2290;48.674;9.018;2022-09-13T04:44:53;2.10;;;1.80;;
4555;SDS011;2290;48.674;9.018;2022-09-13T04:47:19;2.03;;;1.90;;
4555;SDS011;2290;48.674;9.018;2022-09-13T04:49:45;5.03;;;2.27;;
4555;SDS011;2290;48.674;9.018;2022-09-13T04:52:12;3.00;;;2.27;;
4555;SDS011;2290;48.674;9.018;2022-09-13T04:54:38;3.80;;;2.10;;
4555;SDS011;2290;48.674;9.018;2022-09-13T04:57:03;2.50;;;1.90;;
4555;SDS011;2290;48.674;9.018;2022-09-13T04:59:30;3.40;;;1.83;;
4555;SDS011;2290;48.674;9.018;2022-09-13T05:01:55;4.87;;;2.27;;
4555;SDS011;2290;48.674;9.018;2022-09-13T05:04:21;3.10;;;2.03;;
4555;SDS011;2290;48.674;9.018;2022-09-13T05:06:47;2.40;;;2.10;;
4555;SDS011;2290;48.674;9.018;2022-09-13T05:09:13;2.30;;;2.10;;
4555;SDS011;2290;48.674;9.018;2022-09-13T05:11:39;3.70;;;2.10;;
4555;SDS011;2290;48.674;9.018;2022-09-13T05:14:05;3.10;;;2.50;;
4555;SDS011;2290;48.674;9.018;2022-09-13T05:16:33;2.87;;;2.03;;
4555;SDS011;2290;48.674;9.018;2022-09-13T05:18:59;3.50;;;2.30;;
4555;SDS011;2290;48.674;9.018;2022-09-13T05:21:25;2.13;;;1.90;;
4555;SDS011;2290;48.674;9.018;2022-09-13T05:23:54;3.07;;;2.03;;
4555;SDS011;2290;48.674;9.018;2022-09-13T05:26:21;2.00;;;1.70;;
4555;SDS011;2290;48.674;9.018;2022-09-13T05:28:48;2.60;;;2.30;;
4555;SDS011;2290;48.674;9.018;2022-09-13T05:31:15;2.40;;;1.80;;
4555;SDS011;2290;48.674;9.018;2022-09-13T05:33:43;1.90;;;1.60;;
4555;SDS011;2290;48.674;9.018;2022-09-13T05:36:10;2.30;;;2.10;;
4555;SDS011;2290;48.674;9.018;2022-09-13T05:38:36;2.30;;;2.10;;
4555;SDS011;2290;48.674;9.018;2022-09-13T05:41:02;2.50;;;2.07;;
4555;SDS011;2290;48.674;9.018;2022-09-13T05:43:30;2.87;;;2.27;;
4555;SDS011;2290;48.674;9.018;2022-09-13T05:46:01;2.90;;;2.37;;
4555;SDS011;2290;48.674;9.018;2022-09-13T05:48:33;2.43;;;2.23;;
4555;SDS011;2290;48.674;9.018;2022-09-13T05:51:13;3.70;;;2.40;;
4555;SDS011;2290;48.674;9.018;2022-09-13T05:53:41;2.43;;;1.87;;
4555;SDS011;2290;48.674;9.018;2022-09-13T05:56:10;2.40;;;1.90;;
4555;SDS011;2290;48.674;9.018;2022-09-13T05:58:38;2.70;;;1.50;;
4555;SDS011;2290;48.674;9.018;2022-09-13T06:01:10;2.57;;;2.07;;
4555;SDS011;2290;48.674;9.018;2022-09-13T06:03:36;3.20;;;2.47;;
4555;SDS011;2290;48.674;9.018;2022-09-13T06:06:03;6.50;;;2.83;;
4555;SDS011;2290;48.674;9.018;2022-09-13T06:08:30;2.53;;;2.27;;
4555;SDS011;2290;48.674;9.018;2022-09-13T06:10:57;3.00;;;2.17;;
4555;SDS011;2290;48.674;9.018;2022-09-13T06:13:25;2.33;;;1.80;;
4555;SDS011;2290;48.674;9.018;2022-09-13T06:15:51;3.27;;;2.10;;
4555;SDS011;2290;48.674;9.018;2022-09-13T06:18:18;2.63;;;2.20;;
4555;SDS011;2290;48.674;9.018;2022-09-13T06:20:44;4.93;;;2.53;;
4555;SDS011;2290;48.674;9.018;2022-09-13T06:23:10;8.30;;;2.60;;
4555;SDS011;2290;48.674;9.018;2022-09-13T06:25:37;7.70;;;2.33;;
4555;SDS011;2290;48.674;9.018;2022-09-13T06:28:04;9.77;;;2.53;;
4555;SDS011;2290;48.674;9.018;2022-09-13T06:30:30;4.03;;;2.60;;
4555;SDS011;2290;48.674;9.018;2022-09-13T06:32:56;5.73;;;2.83;;
4555;SDS011;2290;48.674;9.018;2022-09-13T06:35:22;6.63;;;3.00;;
4555;SDS011;2290;48.674;9.018;2022-09-13T06:37:48;4.80;;;3.00;;
4555;SDS011;2290;48.674;9.018;2022-09-13T06:40:14;4.17;;;3.07;;
4555;SDS011;2290;48.674;9.018;2022-09-13T06:42:42;2.40;;;2.17;;
4555;SDS011;2290;48.674;9.018;2022-09-13T06:45:08;4.90;;;2.93;;
4555;SDS011;2290;48.674;9.018;2022-09-13T06:47:35;3.60;;;2.80;;
4555;SDS011;2290;48.674;9.018;2022-09-13T06:50:00;5.03;;;2.60;;
4555;SDS011;2290;48.674;9.018;2022-09-13T06:52:26;5.37;;;2.23;;
4555;SDS011;2290;48.674;9.018;2022-09-13T06:54:53;5.47;;;2.67;;
4555;SDS011;2290;48.674;9.018;2022-09-13T06:57:20;7.53;;;3.30;;
4555;SDS011;2290;48.674;9.018;2022-09-13T06:59:46;3.70;;;3.10;;
4555;SDS011;2290;48.674;9.018;2022-09-13T07:02:11;4.77;;;3.30;;
4555;SDS011;2290;48.674;9.018;2022-09-13T07:04:39;8.73;;;3.67;;
4555;SDS011;2290;48.674;9.018;2022-09-13T07:07:05;5.53;;;3.07;;
4555;SDS011;2290;48.674;9.018;2022-09-13T07:09:30;3.87;;;2.60;;
4555;SDS011;2290;48.674;9.018;2022-09-13T07:11:58;3.40;;;2.77;;
4555;SDS011;2290;48.674;9.018;2022-09-13T07:14:25;2.57;;;2.33;;
4555;SDS011;2290;48.674;9.018;2022-09-13T07:16:52;2.50;;;2.30;;
4555;SDS011;2290;48.674;9.018;2022-09-13T07:19:19;3.77;;;3.10;;
4555;SDS011;2290;48.674;9.018;2022-09-13T07:21:47;5.87;;;2.93;;
4555;SDS011;2290;48.674;9.018;2022-09-13T07:24:14;3.30;;;2.60;;
4555;SDS011;2290;48.674;9.018;2022-09-13T07:26:40;4.10;;;2.63;;
4555;SDS011;2290;48.674;9.018;2022-09-13T07:29:07;4.33;;;2.60;;
4555;SDS011;2290;48.674;9.018;2022-09-13T07:31:35;3.13;;;2.70;;
4555;SDS011;2290;48.674;9.018;2022-09-13T07:34:03;2.57;;;2.13;;
4555;SDS011;2290;48.674;9.018;2022-09-13T07:36:31;2.83;;;2.40;;
4555;SDS011;2290;48.674;9.018;2022-09-13T07:38:58;3.47;;;2.27;;
4555;SDS011;2290;48.674;9.018;2022-09-13T07:41:25;4.40;;;2.50;;
4555;SDS011;2290;48.674;9.018;2022-09-13T07:43:51;7.60;;;2.90;;
4555;SDS011;2290;48.674;9.018;2022-09-13T07:46:27;2.40;;;2.10;;
4555;SDS011;2290;48.674;9.018;2022-09-13T07:48:57;3.27;;;2.10;;
4555;SDS011;2290;48.674;9.018;2022-09-13T07:51:28;2.27;;;2.03;;
4555;SDS011;2290;48.674;9.018;2022-09-13T07:53:59;5.40;;;1.90;;
4555;SDS011;2290;48.674;9.018;2022-09-13T07:56:27;2.40;;;2.17;;
4555;SDS011;2290;48.674;9.018;2022-09-13T07:58:57;2.23;;;1.77;;
4555;SDS011;2290;48.674;9.018;2022-09-13T08:01:27;1.87;;;1.70;;
4555;SDS011;2290;48.674;9.018;2022-09-13T08:03:55;2.80;;;2.43;;
4555;SDS011;2290;48.674;9.018;2022-09-13T08:06:27;2.13;;;1.90;;
4555;SDS011;2290;48.674;9.018;2022-09-13T08:08:54;1.70;;;1.57;;
4555;SDS011;2290;48.674;9.018;2022-09-13T08:11:23;1.93;;;1.73;;
4555;SDS011;2290;48.674;9.018;2022-09-13T08:13:51;1.87;;;1.73;;
4555;SDS011;2290;48.674;9.018;2022-09-13T08:16:19;2.00;;;1.80;;
4555;SDS011;2290;48.674;9.018;2022-09-13T08:18:46;2.20;;;1.90;;
4555;SDS011;2290;48.674;9.018;2022-09-13T08:21:13;2.60;;;1.80;;
4555;SDS011;2290;48.674;9.018;2022-09-13T08:23:41;2.47;;;1.90;;
4555;SDS011;2290;48.674;9.018;2022-09-13T08:26:07;1.90;;;1.70;;
4555;SDS011;2290;48.674;9.018;2022-09-13T08:28:37;2.03;;;1.70;;
4555;SDS011;2290;48.674;9.018;2022-09-13T08:31:07;3.17;;;1.87;;
4555;SDS011;2290;48.674;9.018;2022-09-13T08:33:36;2.30;;;2.00;;
4555;SDS011;2290;48.674;9.018;2022-09-13T08:36:03;2.23;;;1.83;;
4555;SDS011;2290;48.674;9.018;2022-09-13T08:38:28;1.97;;;1.73;;
4555;SDS011;2290;48.674;9.018;2022-09-13T08:40:57;1.93;;;1.77;;
4555;SDS011;2290;48.674;9.018;2022-09-13T08:43:47;2.10;;;1.80;;
4555;SDS011;2290;48.674;9.018;2022-09-13T08:46:40;4.00;;;2.00;;
4555;SDS011;2290;48.674;9.018;2022-09-13T08:49:14;3.23;;;2.10;;
4555;SDS011;2290;48.674;9.018;2022-09-13T08:52:25;2.43;;;1.83;;
4555;SDS011;2290;48.674;9.018;2022-09-13T08:58:06;2.03;;;1.83;;
4555;SDS011;2290;48.674;9.018;2022-09-13T09:00:41;2.67;;;2.13;;
4555;SDS011;2290;48.674;9.018;2022-09-13T09:03:22;2.07;;;1.80;;
4555;SDS011;2290;48.674;9.018;2022-09-13T09:05:56;2.67;;;2.47;;
4555;SDS011;2290;48.674;9.018;2022-09-13T09:11:23;2.00;;;1.70;;
4555;SDS011;2290;48.674;9.018;2022-09-13T09:14:14;2.53;;;1.90;;
4555;SDS011;2290;48.674;9.018;2022-09-13T09:17:04;2.03;;;1.83;;
4555;SDS011;2290;48.674;9.018;2022-09-13T09:19:39;2.20;;;1.60;;
4555;SDS011;2290;48.674;9.018;2022-09-13T09:22:19;1.87;;;1.67;;
4555;SDS011;2290;48.674;9.018;2022-09-13T09:24:50;1.90;;;1.77;;
4555;SDS011;2290;48.674;9.018;2022-09-13T09:27:19;1.90;;;1.70;;
4555;SDS011;2290;48.674;9.018;2022-09-13T09:29:48;2.07;;;1.70;;
4555;SDS011;2290;48.674;9.018;2022-09-13T09:32:18;2.90;;;2.70;;
4555;SDS011;2290;48.674;9.018;2022-09-13T09:35:22;1.57;;;1.47;;
4555;SDS011;2290;48.674;9.018;2022-09-13T09:38:50;2.33;;;1.80;;
4555;SDS011;2290;48.674;9.018;2022-09-13T09:41:12;2.17;;;1.80;;
4555;SDS011;2290;48.674;9.018;2022-09-13T09:44:01;3.37;;;1.60;;
4555;SDS011;2290;48.674;9.018;2022-09-13T09:46:35;2.20;;;1.73;;
4555;SDS011;2290;48.674;9.018;2022-09-13T09:49:21;2.30;;;1.70;;
4555;SDS011;2290;48.674;9.018;2022-09-13T09:52:16;3.00;;;1.77;;
4555;SDS011;2290;48.674;9.018;2022-09-13T09:54:46;1.90;;;1.67;;
4555;SDS011;2290;48.674;9.018;2022-09-13T09:57:15;2.57;;;1.57;;
4555;SDS011;2290;48.674;9.018;2022-09-13T09:59:44;1.60;;;1.50;;
4555;SDS011;2290;48.674;9.018;2022-09-13T10:02:16;1.57;;;1.40;;
4555;SDS011;2290;48.674;9.018;2022-09-13T10:04:54;2.73;;;1.80;;
4555;SDS011;2290;48.674;9.018;2022-09-13T10:07:29;2.70;;;1.60;;
4555;SDS011;2290;48.674;9.018;2022-09-13T10:10:07;1.60;;;1.50;;
4555;SDS011;2290;48.674;9.018;2022-09-13T10:12:49;1.63;;;1.40;;
4555;SDS011;2290;48.674;9.018;2022-09-13T10:15:21;1.60;;;1.50;;
4555;SDS011;2290;48.674;9.018;2022-09-13T10:18:11;2.17;;;1.73;;
4555;SDS011;2290;48.674;9.018;2022-09-13T10:20:42;1.53;;;1.43;;
4555;SDS011;2290;48.674;9.018;2022-09-13T10:23:35;1.90;;;1.70;;
4555;SDS011;2290;48.674;9.018;2022-09-13T10:26:10;2.33;;;1.50;;
4555;SDS011;2290;48.674;9.018;2022-09-13T10:28:50;1.60;;;1.50;;
4555;SDS011;2290;48.674;9.018;2022-09-13T10:31:31;2.00;;;1.80;;
4555;SDS011;2290;48.674;9.018;2022-09-13T10:34:12;1.60;;;1.50;;
4555;SDS011;2290;48.674;9.018;2022-09-13T10:36:52;3.93;;;1.60;;
4555;SDS011;2290;48.674;9.018;2022-09-13T10:39:19;2.23;;;1.50;;
4555;SDS011;2290;48.674;9.018;2022-09-13T10:41:56;1.70;;;1.50;;
4555;SDS011;2290;48.674;9.018;2022-09-13T10:44:39;1.60;;;1.47;;
4555;SDS011;2290;48.674;9.018;2022-09-13T10:47:22;2.17;;;1.50;;
4555;SDS011;2290;48.674;9.018;2022-09-13T10:49:54;3.07;;;1.60;;
4555;SDS011;2290;48.674;9.018;2022-09-13T10:57:42;1.90;;;1.50;;
4555;SDS011;2290;48.674;9.018;2022-09-13T11:00:40;2.40;;;1.70;;
4555;SDS011;2290;48.674;9.018;2022-09-13T11:08:55;1.63;;;1.53;;
4555;SDS011;2290;48.674;9.018;2022-09-13T11:20:17;1.60;;;1.50;;
4555;SDS011;2290;48.674;9.018;2022-09-13T11:25:25;2.70;;;1.80;;
4555;SDS011;2290;48.674;9.018;2022-09-13T11:36:59;2.00;;;1.80;;
4555;SDS011;2290;48.674;9.018;2022-09-13T11:39:41;2.63;;;1.53;;
4555;SDS011;2290;48.674;9.018;2022-09-13T11:42:45;2.20;;;1.70;;
4555;SDS011;2290;48.674;9.018;2022-09-13T11:45:53;1.67;;;1.47;;
4555;SDS011;2290;48.674;9.018;2022-09-13T11:54:08;2.07;;;1.60;;
4555;SDS011;2290;48.674;9.018;2022-09-13T11:56:48;1.40;;;1.30;;
4555;SDS011;2290;48.674;9.018;2022-09-13T11:59:21;1.97;;;1.80;;
4555;SDS011;2290;48.674;9.018;2022-09-13T12:02:19;1.70;;;1.50;;
4555;SDS011;2290;48.674;9.018;2022-09-13T12:08:32;1.53;;;1.43;;
4555;SDS011;2290;48.674;9.018;2022-09-13T12:10:51;1.63;;;1.53;;
4555;SDS011;2290;48.674;9.018;2022-09-13T12:13:31;2.00;;;1.63;;
4555;SDS011;2290;48.674;9.018;2022-09-13T12:16:04;1.90;;;1.60;;
4555;SDS011;2290;48.674;9.018;2022-09-13T12:18:46;1.70;;;1.60;;
4555;SDS011;2290;48.674;9.018;2022-09-13T12:21:21;2.27;;;1.47;;
4555;SDS011;2290;48.674;9.018;2022-09-13T12:29:26;2.77;;;1.47;;
4555;SDS011;2290;48.674;9.018;2022-09-13T12:32:01;1.97;;;1.70;;
4555;SDS011;2290;48.674;9.018;2022-09-13T12:37:39;2.13;;;1.77;;
4555;SDS011;2290;48.674;9.018;2022-09-13T12:40:14;2.80;;;1.53;;
4555;SDS011;2290;48.674;9.018;2022-09-13T12:46:06;2.60;;;1.53;;
4555;SDS011;2290;48.674;9.018;2022-09-13T12:57:02;1.40;;;1.30;;
4555;SDS011;2290;48.674;9.018;2022-09-13T13:02:29;2.00;;;1.70;;
4555;SDS011;2290;48.674;9.018;2022-09-13T13:08:06;1.80;;;1.50;;
4555;SDS011;2290;48.674;9.018;2022-09-13T13:11:00;1.90;;;1.70;;
4555;SDS011;2290;48.674;9.018;2022-09-13T13:13:32;1.90;;;1.63;;
4555;SDS011;2290;48.674;9.018;2022-09-13T13:16:24;2.10;;;1.80;;
4555;SDS011;2290;48.674;9.018;2022-09-13T13:18:58;2.00;;;1.80;;
4555;SDS011;2290;48.674;9.018;2022-09-13T13:21:38;1.77;;;1.60;;
4555;SDS011;2290;48.674;9.018;2022-09-13T13:29:17;1.60;;;1.50;;
4555;SDS011;2290;48.674;9.018;2022-09-13T13:36:48;2.50;;;1.83;;
4555;SDS011;2290;48.674;9.018;2022-09-13T13:49:48;3.90;;;1.60;;
4555;SDS011;2290;48.674;9.018;2022-09-13T13:59:55;1.83;;;1.60;;
4555;SDS011;2290;48.674;9.018;2022-09-13T14:02:23;2.40;;;1.70;;
4555;SDS011;2290;48.674;9.018;2022-09-13T14:08:28;2.20;;;1.80;;
4555;SDS011;2290;48.674;9.018;2022-09-13T14:11:21;1.87;;;1.50;;
4555;SDS011;2290;48.674;9.018;2022-09-13T14:20:07;1.73;;;1.50;;
4555;SDS011;2290;48.674;9.018;2022-09-13T14:22:36;2.13;;;1.60;;
4555;SDS011;2290;48.674;9.018;2022-09-13T14:27:49;1.60;;;1.30;;
4555;SDS011;2290;48.674;9.018;2022-09-13T14:30:22;1.40;;;1.30;;
4555;SDS011;2290;48.674;9.018;2022-09-13T14:32:52;1.40;;;1.30;;
4555;SDS011;2290;48.674;9.018;2022-09-13T14:40:58;1.30;;;1.20;;
4555;SDS011;2290;48.674;9.018;2022-09-13T14:43:26;1.97;;;1.40;;
4555;SDS011;2290;48.674;9.018;2022-09-13T14:45:56;1.40;;;1.20;;
4555;SDS011;2290;48.674;9.018;2022-09-13T14:48:41;3.50;;;1.60;;
4555;SDS011;2290;48.674;9.018;2022-09-13T14:53:41;1.70;;;1.20;;
4555;SDS011;2290;48.674;9.018;2022-09-13T14:56:15;1.27;;;1.10;;
4555;SDS011;2290;48.674;9.018;2022-09-13T14:58:54;1.27;;;1.17;;
4555;SDS011;2290;48.674;9.018;2022-09-13T15:01:29;1.40;;;1.30;;
4555;SDS011;2290;48.674;9.018;2022-09-13T15:03:58;1.60;;;1.50;;
4555;SDS011;2290;48.674;9.018;2022-09-13T15:06:27;1.60;;;1.50;;
4555;SDS011;2290;48.674;9.018;2022-09-13T15:09:00;1.40;;;1.30;;
4555;SDS011;2290;48.674;9.018;2022-09-13T15:12:17;1.57;;;1.47;;
4555;SDS011;2290;48.674;9.018;2022-09-13T15:14:44;1.53;;;1.30;;
4555;SDS011;2290;48.674;9.018;2022-09-13T15:17:12;1.50;;;1.30;;
4555;SDS011;2290;48.674;9.018;2022-09-13T15:19:39;1.30;;;1.20;;
4555;SDS011;2290;48.674;9.018;2022-09-13T15:24:52;2.50;;;1.60;;
4555;SDS011;2290;48.674;9.018;2022-09-13T15:27:20;1.47;;;1.37;;
4555;SDS011;2290;48.674;9.018;2022-09-13T15:29:52;1.30;;;1.20;;
4555;SDS011;2290;48.674;9.018;2022-09-13T15:32:22;1.57;;;1.40;;
4555;SDS011;2290;48.674;9.018;2022-09-13T15:34:55;1.83;;;1.47;;
4555;SDS011;2290;48.674;9.018;2022-09-13T15:37:27;1.43;;;1.33;;
4555;SDS011;2290;48.674;9.018;2022-09-13T15:40:13;1.60;;;1.40;;
4555;SDS011;2290;48.674;9.018;2022-09-13T15:42:44;1.50;;;1.40;;
4555;SDS011;2290;48.674;9.018;2022-09-13T15:45:16;1.40;;;1.30;;
4555;SDS011;2290;48.674;9.018;2022-09-13T15:47:45;1.30;;;1.20;;
4555;SDS011;2290;48.674;9.018;2022-09-13T15:50:18;1.93;;;1.73;;
4555;SDS011;2290;48.674;9.018;2022-09-13T15:52:59;1.83;;;1.43;;
4555;SDS011;2290;48.674;9.018;2022-09-13T15:55:26;3.40;;;1.40;;
4555;SDS011;2290;48.674;9.018;2022-09-13T15:57:52;1.43;;;1.30;;
4555;SDS011;2290;48.674;9.018;2022-09-13T16:00:20;1.40;;;1.30;;
4555;SDS011;2290;48.674;9.018;2022-09-13T16:02:47;1.60;;;1.40;;
4555;SDS011;2290;48.674;9.018;2022-09-13T16:05:13;1.53;;;1.40;;
4555;SDS011;2290;48.674;9.018;2022-09-13T16:07:40;2.60;;;1.30;;
4555;SDS011;2290;48.674;9.018;2022-09-13T16:10:09;1.50;;;1.40;;
4555;SDS011;2290;48.674;9.018;2022-09-13T16:12:40;2.17;;;1.40;;
4555;SDS011;2290;48.674;9.018;2022-09-13T16:15:07;1.73;;;1.40;;
4555;SDS011;2290;48.674;9.018;2022-09-13T16:17:33;1.80;;;1.40;;
4555;SDS011;2290;48.674;9.018;2022-09-13T16:19:59;1.30;;;1.10;;
4555;SDS011;2290;48.674;9.018;2022-09-13T16:22:24;1.40;;;1.10;;
4555;SDS011;2290;48.674;9.018;2022-09-13T16:24:51;1.33;;;1.20;;
4555;SDS011;2290;48.674;9.018;2022-09-13T16:27:17;2.03;;;1.33;;
4555;SDS011;2290;48.674;9.018;2022-09-13T16:29:43;2.20;;;1.50;;
4555;SDS011;2290;48.674;9.018;2022-09-13T16:32:10;2.60;;;1.57;;
4555;SDS011;2290;48.674;9.018;2022-09-13T16:34:35;1.70;;;1.50;;
4555;SDS011;2290;48.674;9.018;2022-09-13T16:37:01;1.50;;;1.30;;
4555;SDS011;2290;48.674;9.018;2022-09-13T16:39:27;1.20;;;1.10;;
4555;SDS011;2290;48.674;9.018;2022-09-13T16:41:53;2.33;;;1.60;;
4555;SDS011;2290;48.674;9.018;2022-09-13T16:44:18;3.03;;;1.97;;
4555;SDS011;2290;48.674;9.018;2022-09-13T16:46:44;1.50;;;1.40;;
4555;SDS011;2290;48.674;9.018;2022-09-13T16:49:10;2.37;;;1.70;;
4555;SDS011;2290;48.674;9.018;2022-09-13T16:51:35;2.40;;;1.90;;
4555;SDS011;2290;48.674;9.018;2022-09-13T16:54:03;2.37;;;1.50;;
4555;SDS011;2290;48.674;9.018;2022-09-13T16:56:30;2.37;;;1.60;;
4555;SDS011;2290;48.674;9.018;2022-09-13T16:58:56;2.07;;;1.60;;
4555;SDS011;2290;48.674;9.018;2022-09-13T17:01:22;2.40;;;1.60;;
4555;SDS011;2290;48.674;9.018;2022-09-13T17:03:50;2.83;;;1.70;;
4555;SDS011;2290;48.674;9.018;2022-09-13T17:06:16;2.00;;;1.70;;
4555;SDS011;2290;48.674;9.018;2022-09-13T17:08:47;2.30;;;1.70;;
4555;SDS011;2290;48.674;9.018;2022-09-13T17:11:16;2.10;;;1.57;;
4555;SDS011;2290;48.674;9.018;2022-09-13T17:13:43;2.20;;;1.83;;
4555;SDS011;2290;48.674;9.018;2022-09-13T17:16:28;4.80;;;2.37;;
4555;SDS011;2290;48.674;9.018;2022-09-13T17:18:56;4.27;;;2.10;;
4555;SDS011;2290;48.674;9.018;2022-09-13T17:21:22;3.80;;;2.07;;
4555;SDS011;2290;48.674;9.018;2022-09-13T17:23:49;2.73;;;2.10;;
4555;SDS011;2290;48.674;9.018;2022-09-13T17:26:14;2.70;;;2.17;;
4555;SDS011;2290;48.674;9.018;2022-09-13T17:28:40;2.00;;;1.40;;
4555;SDS011;2290;48.674;9.018;2022-09-13T17:31:06;2.67;;;1.60;;
4555;SDS011;2290;48.674;9.018;2022-09-13T17:33:31;1.70;;;1.60;;
4555;SDS011;2290;48.674;9.018;2022-09-13T17:36:02;1.70;;;1.47;;
4555;SDS011;2290;48.674;9.018;2022-09-13T17:38:31;2.13;;;1.90;;
4555;SDS011;2290;48.674;9.018;2022-09-13T17:40:57;1.50;;;1.40;;
4555;SDS011;2290;48.674;9.018;2022-09-13T17:43:27;1.87;;;1.53;;
4555;SDS011;2290;48.674;9.018;2022-09-13T17:45:53;1.63;;;1.53;;
4555;SDS011;2290;48.674;9.018;2022-09-13T17:48:18;2.63;;;1.70;;
4555;SDS011;2290;48.674;9.018;2022-09-13T17:50:44;1.50;;;1.40;;
4555;SDS011;2290;48.674;9.018;2022-09-13T17:53:10;2.33;;;1.60;;
4555;SDS011;2290;48.674;9.018;2022-09-13T17:55:43;2.27;;;1.70;;
4555;SDS011;2290;48.674;9.018;2022-09-13T17:58:10;1.80;;;1.40;;
4555;SDS011;2290;48.674;9.018;2022-09-13T18:00:36;2.13;;;1.40;;
4555;SDS011;2290;48.674;9.018;2022-09-13T18:03:01;2.50;;;1.50;;
4555;SDS011;2290;48.674;9.018;2022-09-13T18:05:27;2.90;;;1.60;;
4555;SDS011;2290;48.674;9.018;2022-09-13T18:07:53;2.43;;;1.60;;
4555;SDS011;2290;48.674;9.018;2022-09-13T18:10:18;3.30;;;1.60;;
4555;SDS011;2290;48.674;9.018;2022-09-13T18:12:44;9.93;;;1.80;;
4555;SDS011;2290;48.674;9.018;2022-09-13T18:15:10;2.10;;;1.63;;
4555;SDS011;2290;48.674;9.018;2022-09-13T18:17:36;2.90;;;1.60;;
4555;SDS011;2290;48.674;9.018;2022-09-13T18:20:02;1.80;;;1.40;;
4555;SDS011;2290;48.674;9.018;2022-09-13T18:22:27;1.67;;;1.50;;
4555;SDS011;2290;48.674;9.018;2022-09-13T18:24:53;2.10;;;1.67;;
4555;SDS011;2290;48.674;9.018;2022-09-13T18:27:19;2.57;;;1.70;;
4555;SDS011;2290;48.674;9.018;2022-09-13T18:29:45;1.50;;;1.37;;